Details for Ryanair at EDSB




Go Back


Latest METAR
Local Time

EDSB 180620Z VRB02KT 1800 BCFG BR FEW003 BKN008 17/17 Q1022
18/08/2018, 08:27:26

Description
Results
Ryanair Logo
Number of Pilots based at EDSB
0 Pilots Based here
Number of Ryanair Flights Departed from EDSB
0 Flights Departed
Number of Ryanair Flights Arrived at EDSB
0 Flights Arrived
Number of Ryanair Schedules Departing from EDSB
31 Schedules
Number of Ryanair Schedules Arriving at EDSB
31 Schedules
Number of Ryanair Schedules Departing from EDSB availible today
8 Schedules Today
Number of Ryanair Schedules Arriving at EDSB availible today
8 Schedules Today
Average Landing Rate at EDSB
0 fpm
Ryanair Average Landing Rate at EDSB
0 fpm
Total Fuel Purchased at EDSB by Ryanair
0.00 kgs / 0.00 lbs

Pilots Based at EDSB


Pilot ID
Pilot Name
Pilot Rank
No. of Flights
No. of Flying Hours
There are no pilots assigned to this hub!   Will you be the first?
Content